createdAt,value
2019-04-01T00:01:24.747Z,7.72
2019-04-01T00:04:17.158Z,8.05
2019-04-01T00:07:06.117Z,8.05
2019-04-01T00:09:43.929Z,8.10
2019-04-01T00:12:19.868Z,7.17
2019-04-01T00:15:03.285Z,8.43
2019-04-01T00:17:51.557Z,8.50
2019-04-01T00:20:26.928Z,8.88
2019-04-01T00:23:07.898Z,9.08
2019-04-01T00:25:42.299Z,21.82
2019-04-01T00:28:16.411Z,10.32
2019-04-01T00:30:50.762Z,11.48
2019-04-01T00:33:25.142Z,9.35
2019-04-01T00:36:00.888Z,9.33
2019-04-01T00:38:37.199Z,10.48
2019-04-01T00:41:17.027Z,14.23
2019-04-01T00:43:54.820Z,19.32
2019-04-01T00:46:29.615Z,20.70
2019-04-01T00:49:18.725Z,11.80
2019-04-01T00:51:52.502Z,9.53
2019-04-01T00:54:42.674Z,9.20
2019-04-01T00:57:18.196Z,9.80
2019-04-01T00:59:55.263Z,9.63
2019-04-01T01:02:33.457Z,9.83
2019-04-01T01:05:08.706Z,9.10
2019-04-01T01:10:37.921Z,9.50
2019-04-01T01:13:23.138Z,10.93
2019-04-01T01:15:52.370Z,11.28
2019-04-01T01:18:31.188Z,9.00
2019-04-01T01:24:06.183Z,11.68
2019-04-01T01:26:51.495Z,10.13
2019-04-01T01:29:36.300Z,10.13
2019-04-01T01:35:01.704Z,12.18
2019-04-01T01:37:39.586Z,11.18
2019-04-01T01:40:14.088Z,11.80
2019-04-01T01:42:51.152Z,11.33
2019-04-01T01:45:26.920Z,13.28
2019-04-01T01:50:58.742Z,9.95
2019-04-01T01:56:38.014Z,10.63
2019-04-01T01:59:12.015Z,10.48
2019-04-01T02:01:51.541Z,9.88
2019-04-01T02:04:40.699Z,9.00
2019-04-01T02:07:20.307Z,11.28
2019-04-01T02:09:53.726Z,25.88
2019-04-01T02:12:28.546Z,12.60
2019-04-01T02:15:06.715Z,10.18
2019-04-01T02:17:41.905Z,9.90
2019-04-01T02:23:26.044Z,10.15
2019-04-01T02:26:02.173Z,10.82
2019-04-01T02:28:36.379Z,10.18
2019-04-01T02:31:11.908Z,10.88
2019-04-01T02:33:52.547Z,10.82
2019-04-01T02:39:20.559Z,11.97
2019-04-01T02:42:30.241Z,11.80
2019-04-01T02:44:35.718Z,11.97
2019-04-01T02:47:09.992Z,12.03
2019-04-01T02:49:51.722Z,11.73
2019-04-01T02:52:28.391Z,12.00
2019-04-01T02:55:06.735Z,13.58
2019-04-01T02:57:39.673Z,12.85
2019-04-01T03:02:46.796Z,11.85
2019-04-01T03:05:24.144Z,12.78
2019-04-01T03:08:01.392Z,12.75
2019-04-01T03:10:35.239Z,12.10
2019-04-01T03:13:12.638Z,12.55
2019-04-01T03:15:58.565Z,13.90
2019-04-01T03:18:33.833Z,13.13
2019-04-01T03:21:10.424Z,13.58
2019-04-01T03:23:46.118Z,13.72
2019-04-01T03:26:20.141Z,13.20
2019-04-01T03:31:26.699Z,12.85
2019-04-01T03:34:02.090Z,12.98
2019-04-01T03:36:36.329Z,12.95
2019-04-01T03:39:18.912Z,14.00
2019-04-01T03:41:53.316Z,13.78
2019-04-01T03:44:27.706Z,15.03
2019-04-01T03:47:05.356Z,13.58
2019-04-01T03:49:44.804Z,14.45
2019-04-01T03:52:22.261Z,14.15
2019-04-01T03:55:05.808Z,14.30
2019-04-01T03:57:35.074Z,13.00
2019-04-01T04:00:19.671Z,13.75
2019-04-01T04:03:01.364Z,13.13
2019-04-01T04:05:35.184Z,13.80
2019-04-01T04:08:10.328Z,15.78
2019-04-01T04:10:47.955Z,13.10
2019-04-01T04:13:26.782Z,14.38
2019-04-01T04:16:04.225Z,14.93
2019-04-01T04:18:40.336Z,15.03
2019-04-01T04:24:05.910Z,14.25
2019-04-01T04:26:41.800Z,14.30
2019-04-01T04:29:20.335Z,13.93
2019-04-01T04:31:56.579Z,15.28
2019-04-01T04:34:42.858Z,14.45
2019-04-01T04:37:19.314Z,16.67
2019-04-01T04:40:08.753Z,14.83
2019-04-01T04:42:34.213Z,15.30
2019-04-01T04:45:11.664Z,14.63
2019-04-01T04:47:49.765Z,14.03
2019-04-01T04:50:24.009Z,15.23
2019-04-01T04:52:59.713Z,15.93
2019-04-01T04:55:33.675Z,14.40
2019-04-01T05:00:45.119Z,12.90
2019-04-01T05:03:21.626Z,14.70
2019-04-01T05:05:55.869Z,15.25
2019-04-01T05:08:34.898Z,15.75
2019-04-01T05:11:09.535Z,16.05
2019-04-01T05:13:49.765Z,14.28
2019-04-01T05:19:19.654Z,15.05
2019-04-01T05:22:04.035Z,15.70
2019-04-01T05:27:13.843Z,14.03
2019-04-01T05:29:51.166Z,16.55
2019-04-01T05:32:31.444Z,15.45
2019-04-01T05:35:05.100Z,16.00
2019-04-01T05:37:40.638Z,15.30
2019-04-01T05:40:20.082Z,15.10
2019-04-01T05:42:56.837Z,14.98
2019-04-01T05:45:44.089Z,14.85
2019-04-01T05:51:13.151Z,14.55
2019-04-01T05:53:47.666Z,15.70
2019-04-01T05:56:23.259Z,15.13
2019-04-01T06:05:03.101Z,17.60
2019-04-01T06:07:39.645Z,18.60
2019-04-01T06:10:14.053Z,17.62
2019-04-01T06:12:57.605Z,19.25
2019-04-01T06:15:34.736Z,16.40
2019-04-01T06:24:24.828Z,17.02
2019-04-01T06:33:13.401Z,15.35
2019-04-01T06:55:26.280Z,15.58
2019-04-01T06:58:01.073Z,15.32
2019-04-01T07:04:00.684Z,16.77
2019-04-01T07:09:43.000Z,15.83
2019-04-01T07:15:58.282Z,16.45
2019-04-01T07:31:09.989Z,15.90
2019-04-01T07:37:10.921Z,16.57
2019-04-01T07:39:36.044Z,17.75
2019-04-01T07:45:08.905Z,16.77
2019-04-01T07:51:12.458Z,17.17
2019-04-01T07:54:20.201Z,11.88
2019-04-01T08:06:15.593Z,18.02
2019-04-01T08:15:05.966Z,19.65
2019-04-01T08:17:40.232Z,19.85
2019-04-01T08:20:14.061Z,18.73
2019-04-01T08:22:59.552Z,19.57
2019-04-01T08:25:50.334Z,20.40
2019-04-01T08:31:51.273Z,19.90
2019-04-01T08:34:58.967Z,19.90
2019-04-01T08:40:40.081Z,21.55
2019-04-01T08:49:10.014Z,19.98
2019-04-01T08:51:44.073Z,23.45
2019-04-01T09:06:13.821Z,21.50
2019-04-01T09:08:54.377Z,23.20
2019-04-01T09:11:28.457Z,21.95
2019-04-01T09:14:19.714Z,21.23
2019-04-01T09:20:04.293Z,22.73
2019-04-01T09:26:03.093Z,21.70
2019-04-01T09:37:45.433Z,19.60
2019-04-01T09:40:19.376Z,21.17
2019-04-01T09:49:24.533Z,20.15
2019-04-01T09:58:52.178Z,21.17
2019-04-01T10:01:25.599Z,19.98
2019-04-01T10:04:00.347Z,20.48
2019-04-01T10:06:34.302Z,19.55
2019-04-01T10:09:25.951Z,20.72
2019-04-01T10:15:59.951Z,19.10
2019-04-01T10:21:24.866Z,20.80
2019-04-01T10:36:29.485Z,21.25
2019-04-01T10:39:02.931Z,19.95
2019-04-01T10:45:04.378Z,21.85
2019-04-01T10:47:55.413Z,20.45
2019-04-01T11:09:16.825Z,24.60
2019-04-01T11:11:51.543Z,25.52
2019-04-01T11:14:25.969Z,22.58
2019-04-01T11:27:16.063Z,21.62
2019-04-01T11:30:08.101Z,21.35
2019-04-01T11:32:42.812Z,21.97
2019-04-01T11:38:07.055Z,21.73
2019-04-01T11:41:25.309Z,61.35
2019-04-01T11:44:36.837Z,24.27
2019-04-01T11:46:48.669Z,26.15
2019-04-01T11:49:23.430Z,20.68
2019-04-01T11:52:04.606Z,19.67
2019-04-01T11:54:45.495Z,20.43
2019-04-01T11:57:38.288Z,19.87
2019-04-01T11:59:59.248Z,20.62
2019-04-01T12:02:39.044Z,21.45
2019-04-01T12:05:16.829Z,20.72
2019-04-01T12:08:07.563Z,21.17
2019-04-01T12:13:43.782Z,20.43
2019-04-01T12:16:33.532Z,22.98
2019-04-01T12:19:02.543Z,23.80
2019-04-01T12:24:42.375Z,21.48
2019-04-01T12:30:24.855Z,22.15
2019-04-01T12:36:03.460Z,21.25
2019-04-01T12:38:46.478Z,20.85
2019-04-01T12:47:14.599Z,26.10
2019-04-01T12:49:57.498Z,22.65
2019-04-01T12:52:52.691Z,21.65
2019-04-01T12:55:24.464Z,21.42
2019-04-01T13:00:56.630Z,22.75
2019-04-01T13:03:41.857Z,23.92
2019-04-01T13:06:40.693Z,23.67
2019-04-01T13:12:27.094Z,23.57
2019-04-01T13:15:08.310Z,22.00
2019-04-01T13:18:03.283Z,26.50
2019-04-01T13:23:44.599Z,24.20
2019-04-01T13:26:34.084Z,24.63
2019-04-01T13:29:25.924Z,56.00
2019-04-01T13:32:04.523Z,66.42
2019-04-01T13:34:59.308Z,38.90
2019-04-01T13:37:31.283Z,66.28
2019-04-01T13:41:41.757Z,53.48
2019-04-01T14:08:05.835Z,65.60
2019-04-01T14:23:26.369Z,49.48
2019-04-01T14:48:09.706Z,27.07
2019-04-01T16:00:38.738Z,26.02
2019-04-01T16:15:38.296Z,26.35
2019-04-01T16:18:17.438Z,25.60
2019-04-01T16:36:56.564Z,25.57
2019-04-01T16:46:00.437Z,27.80
2019-04-01T17:03:39.584Z,26.85
2019-04-01T17:06:11.854Z,26.80
2019-04-01T17:09:00.741Z,27.30
2019-04-01T17:12:12.836Z,25.75
2019-04-01T17:15:03.325Z,27.90
2019-04-01T17:17:47.083Z,27.15
2019-04-01T17:23:16.951Z,27.32
2019-04-01T17:25:52.379Z,25.43
2019-04-01T17:28:29.854Z,26.37
2019-04-01T17:31:06.174Z,27.13
2019-04-01T17:33:54.522Z,26.93
2019-04-01T17:36:30.103Z,25.72
2019-04-01T17:39:12.217Z,26.77
2019-04-01T17:41:42.827Z,26.62
2019-04-01T17:47:19.322Z,27.48
2019-04-01T17:49:53.429Z,28.70
2019-04-01T17:52:32.081Z,25.62
2019-04-01T17:55:09.420Z,26.42
2019-04-01T17:57:46.701Z,25.90
2019-04-01T18:00:24.804Z,26.33
2019-04-01T18:03:00.286Z,26.77
2019-04-01T18:05:34.408Z,25.32
2019-04-01T18:08:08.247Z,26.50
2019-04-01T18:10:42.605Z,27.07
2019-04-01T18:13:16.792Z,25.70
2019-04-01T18:15:57.034Z,25.12
2019-04-01T18:18:28.854Z,27.60
2019-04-01T18:21:09.488Z,29.37
2019-04-01T18:23:41.788Z,25.85
2019-04-01T18:26:15.939Z,26.65
2019-04-01T18:31:28.099Z,25.72
2019-04-01T18:34:01.889Z,27.48
2019-04-01T18:36:43.501Z,25.43
2019-04-01T18:39:15.253Z,25.02
2019-04-01T18:41:47.312Z,25.57
2019-04-01T18:44:21.194Z,24.52
2019-04-01T18:46:59.040Z,24.35
2019-04-01T18:49:33.374Z,24.47
2019-04-01T18:52:08.334Z,25.75
2019-04-01T18:54:45.855Z,24.63
2019-04-01T18:57:20.383Z,26.20
2019-04-01T18:59:57.073Z,21.75
2019-04-01T19:02:30.776Z,21.33
2019-04-01T19:05:10.507Z,22.75
2019-04-01T19:07:43.540Z,22.77
2019-04-01T19:10:19.636Z,22.07
2019-04-01T19:13:05.894Z,21.65
2019-04-01T19:15:36.831Z,21.75
2019-04-01T19:18:11.296Z,22.70
2019-04-01T19:20:56.295Z,20.95
2019-04-01T19:23:24.663Z,23.05
2019-04-01T19:25:58.907Z,21.82
2019-04-01T19:28:32.733Z,23.15
2019-04-01T19:33:39.263Z,23.25
2019-04-01T19:36:15.385Z,22.45
2019-04-01T19:38:54.308Z,22.05
2019-04-01T19:41:27.923Z,23.10
2019-04-01T19:46:33.791Z,20.77
2019-04-01T19:49:07.617Z,21.82
2019-04-01T19:51:41.479Z,21.30
2019-04-01T19:54:15.170Z,21.60
2019-04-01T19:59:25.999Z,20.32
2019-04-01T20:01:59.508Z,22.42
2019-04-01T20:04:34.123Z,21.62
2019-04-01T20:07:07.982Z,21.12
2019-04-01T20:09:41.659Z,21.70
2019-04-01T20:12:15.850Z,20.57
2019-04-01T20:14:49.587Z,21.12
2019-04-01T20:17:23.557Z,20.05
2019-04-01T20:19:57.767Z,21.52
2019-04-01T20:22:31.688Z,21.80
2019-04-01T20:27:38.717Z,20.82
2019-04-01T20:30:12.369Z,21.50
2019-04-01T20:32:49.136Z,19.87
2019-04-01T20:35:28.969Z,20.60
2019-04-01T20:38:02.754Z,21.10
2019-04-01T20:40:37.506Z,21.33
2019-04-01T20:43:11.552Z,20.17
2019-04-01T20:48:17.752Z,20.12
2019-04-01T20:53:23.678Z,20.68
2019-04-01T20:55:57.468Z,20.27
2019-04-01T20:58:31.269Z,21.70
2019-04-01T21:01:06.258Z,21.02
2019-04-01T21:03:40.475Z,22.52
2019-04-01T21:06:14.593Z,20.80
2019-04-01T21:08:48.440Z,21.97
2019-04-01T21:11:22.393Z,20.85
2019-04-01T21:13:56.199Z,19.60
2019-04-01T21:16:31.120Z,20.77
2019-04-01T21:19:05.108Z,20.97
2019-04-01T21:21:41.956Z,19.92
2019-04-01T21:24:18.697Z,19.57
2019-04-01T21:26:52.900Z,19.40
2019-04-01T21:29:28.964Z,19.65
2019-04-01T21:32:03.428Z,19.45
2019-04-01T21:34:37.378Z,21.27
2019-04-01T21:39:43.464Z,19.87
2019-04-01T21:42:17.514Z,19.27
2019-04-01T21:44:51.407Z,18.90
2019-04-01T21:47:25.254Z,20.65
2019-04-01T21:49:59.070Z,19.98
2019-04-01T21:52:34.846Z,19.27
2019-04-01T21:55:08.594Z,20.43
2019-04-01T21:57:43.446Z,19.07
2019-04-01T22:00:20.596Z,20.48
2019-04-01T22:02:58.533Z,18.98
2019-04-01T22:05:32.925Z,18.80
2019-04-01T22:08:07.214Z,19.82
2019-04-01T22:10:43.546Z,20.32
2019-04-01T22:13:18.433Z,19.40
2019-04-01T22:15:53.399Z,18.70
2019-04-01T22:18:27.551Z,20.08
2019-04-01T22:21:04.786Z,19.95
2019-04-01T22:23:41.574Z,19.73
2019-04-01T22:26:14.590Z,19.42
2019-04-01T22:28:50.184Z,18.40
2019-04-01T22:31:26.976Z,19.62
2019-04-01T22:34:06.582Z,19.48
2019-04-01T22:36:40.398Z,19.12
2019-04-01T22:39:26.282Z,18.07
2019-04-01T22:41:50.079Z,18.92
2019-04-01T22:44:26.919Z,18.57
2019-04-01T22:47:00.437Z,16.93
2019-04-01T22:52:10.724Z,17.48
2019-04-01T22:54:45.428Z,19.62
2019-04-01T22:57:20.633Z,19.15
2019-04-01T23:00:03.058Z,18.98
2019-04-01T23:02:42.238Z,17.70
2019-04-01T23:05:22.410Z,18.57
2019-04-01T23:07:56.988Z,16.67
2019-04-01T23:10:31.867Z,19.42
2019-04-01T23:13:09.885Z,18.60
2019-04-01T23:15:57.897Z,17.55
2019-04-01T23:18:25.605Z,17.92
2019-04-01T23:20:59.428Z,18.02
2019-04-01T23:26:13.569Z,18.35
2019-04-01T23:28:53.139Z,18.10
2019-04-01T23:31:24.197Z,18.57
2019-04-01T23:34:01.101Z,16.80
2019-04-01T23:36:37.987Z,17.62
2019-04-01T23:39:11.453Z,17.67
2019-04-01T23:41:47.343Z,18.77
2019-04-01T23:44:23.840Z,21.33
2019-04-01T23:46:58.717Z,19.48
2019-04-01T23:49:34.844Z,19.32
2019-04-01T23:52:08.649Z,18.25
2019-04-01T23:57:18.152Z,19.37
2019-04-01T23:59:55.579Z,19.40
